Time;durP1;ratioP1;P1;durP2;ratioP2;P2;SDS_P1;SDS_P2;PMS_P1;PMS_P2;Temp;Humidity;BMP_temperature;BMP_pressure;BME280_temperature;BME280_humidity;BME280_pressure;Samples;Min_cycle;Max_cycle;Signal;HPM_P1;HPM_P2
2021/09/28 00:01:31;;;;;;;5.30;1.80;;;14.20;94.20;;;;;;5006495;28;20117;-88
2021/09/28 00:03:56;;;;;;;6.43;2.00;;;14.20;94.20;;;;;;4985602;28;20108;-88
2021/09/28 00:06:22;;;;;;;8.38;2.40;;;14.20;94.30;;;;;;4983672;22;20037;-84
2021/09/28 00:08:48;;;;;;;8.32;2.05;;;14.10;94.30;;;;;;4974580;28;20058;-84
2021/09/28 00:11:13;;;;;;;3.85;1.88;;;14.20;94.30;;;;;;4990864;28;20129;-84
2021/09/28 00:13:40;;;;;;;8.75;3.30;;;14.10;94.40;;;;;;4997827;28;20030;-85
2021/09/28 00:16:06;;;;;;;5.68;2.00;;;14.10;94.40;;;;;;4995990;28;20030;-84
2021/09/28 00:18:32;;;;;;;10.75;3.03;;;14.10;94.30;;;;;;4981757;28;20010;-90
2021/09/28 00:20:58;;;;;;;8.90;2.33;;;14.10;94.30;;;;;;5006037;28;20058;-85
2021/09/28 00:23:23;;;;;;;5.63;1.70;;;14.10;94.40;;;;;;5005948;28;20093;-85
2021/09/28 00:25:49;;;;;;;8.10;1.85;;;14.00;94.30;;;;;;4979612;28;20041;-86
2021/09/28 00:28:16;;;;;;;5.97;2.42;;;14.00;94.20;;;;;;4998401;28;20026;-92
2021/09/28 00:30:43;;;;;;;4.25;1.70;;;14.00;94.30;;;;;;5013829;28;20010;-89
2021/09/28 00:33:09;;;;;;;7.28;2.08;;;13.90;94.40;;;;;;5000175;28;20045;-84
2021/09/28 00:35:35;;;;;;;7.40;2.28;;;13.90;94.40;;;;;;4993565;28;20077;-87
2021/09/28 00:38:01;;;;;;;6.65;2.42;;;13.90;94.50;;;;;;4994223;28;20089;-84
2021/09/28 00:40:27;;;;;;;7.03;1.98;;;13.90;94.60;;;;;;4961350;28;20427;-84
2021/09/28 00:42:52;;;;;;;9.80;2.50;;;13.90;94.60;;;;;;4977195;28;20038;-84
2021/09/28 00:45:18;;;;;;;6.65;2.08;;;13.90;94.60;;;;;;4977205;28;20034;-84
2021/09/28 00:47:44;;;;;;;5.28;1.83;;;13.90;94.60;;;;;;4976160;28;20474;-84
2021/09/28 00:50:10;;;;;;;8.55;2.05;;;13.90;94.70;;;;;;4993102;28;20120;-84
2021/09/28 00:52:36;;;;;;;4.60;1.70;;;13.90;94.70;;;;;;4979611;28;20023;-84
2021/09/28 00:55:03;;;;;;;5.90;2.15;;;13.90;94.70;;;;;;4977493;28;20030;-85
2021/09/28 00:57:29;;;;;;;7.68;2.00;;;13.90;94.70;;;;;;4960870;28;20022;-84
2021/09/28 00:59:56;;;;;;;6.40;1.80;;;13.80;94.50;;;;;;4960639;28;20045;-84
2021/09/28 01:02:22;;;;;;;6.43;1.80;;;13.80;94.70;;;;;;4960829;28;20041;-86
2021/09/28 01:04:47;;;;;;;5.57;1.90;;;13.80;94.70;;;;;;4976324;28;20030;-84
2021/09/28 01:07:13;;;;;;;8.00;2.20;;;13.80;94.70;;;;;;4979670;28;20058;-85
2021/09/28 01:09:39;;;;;;;4.88;2.00;;;13.80;94.80;;;;;;4976582;28;20049;-90
2021/09/28 01:12:07;;;;;;;5.38;1.80;;;13.80;94.70;;;;;;4993311;28;20033;-84
2021/09/28 01:14:32;;;;;;;6.70;1.98;;;13.80;94.70;;;;;;4964726;28;20024;-84
2021/09/28 01:16:58;;;;;;;5.82;1.88;;;13.80;94.70;;;;;;4977172;28;20339;-84
2021/09/28 01:19:24;;;;;;;8.07;2.17;;;13.80;94.70;;;;;;4976910;28;20022;-84
2021/09/28 01:21:50;;;;;;;9.98;1.98;;;13.70;94.70;;;;;;4976615;28;20053;-84
2021/09/28 01:24:16;;;;;;;8.10;2.03;;;13.70;94.70;;;;;;4960669;28;20022;-84
2021/09/28 01:26:42;;;;;;;7.32;2.30;;;13.70;94.90;;;;;;4993699;28;20379;-85
2021/09/28 01:29:08;;;;;;;6.35;1.83;;;13.70;94.90;;;;;;4986553;28;20018;-84
2021/09/28 01:31:35;;;;;;;9.63;2.38;;;13.70;95.00;;;;;;4993174;28;20033;-84
2021/09/28 01:34:01;;;;;;;7.10;1.77;;;13.70;94.90;;;;;;4992971;28;20034;-84
2021/09/28 01:36:27;;;;;;;7.50;2.08;;;13.70;95.00;;;;;;4993183;28;20042;-85
2021/09/28 01:38:52;;;;;;;5.47;1.77;;;13.70;95.10;;;;;;4974830;28;20041;-84
2021/09/28 01:41:18;;;;;;;8.93;2.70;;;13.70;94.90;;;;;;4994966;28;20030;-85
2021/09/28 01:43:44;;;;;;;5.63;1.60;;;13.60;94.90;;;;;;4983065;28;20034;-85
2021/09/28 01:46:09;;;;;;;5.15;1.90;;;13.60;94.90;;;;;;4990981;28;20037;-83
2021/09/28 01:48:44;;;;;;;7.28;2.20;;;13.60;94.90;;;;;;4947742;28;20041;-84
2021/09/28 01:51:09;;;;;;;7.68;1.73;;;13.60;94.90;;;;;;4996167;28;20030;-84
2021/09/28 01:53:36;;;;;;;7.85;1.98;;;13.60;95.00;;;;;;4996028;28;20026;-84
2021/09/28 01:56:01;;;;;;;4.70;1.60;;;13.60;95.00;;;;;;4979760;28;20073;-84
2021/09/28 01:58:27;;;;;;;7.20;1.73;;;13.50;95.10;;;;;;5006736;28;20456;-84
2021/09/28 02:00:53;;;;;;;8.95;2.53;;;13.50;95.10;;;;;;4997276;28;20041;-85
2021/09/28 02:03:19;;;;;;;9.00;2.00;;;13.50;95.20;;;;;;4973253;28;20031;-84
2021/09/28 02:05:45;;;;;;;6.38;1.92;;;13.50;95.10;;;;;;4989062;28;20022;-85
2021/09/28 02:08:11;;;;;;;9.02;2.20;;;13.50;95.20;;;;;;4941488;28;20095;-84
2021/09/28 02:10:37;;;;;;;5.82;2.00;;;13.50;95.20;;;;;;4969306;28;20050;-85
2021/09/28 02:13:03;;;;;;;9.50;2.15;;;13.50;95.20;;;;;;4944180;28;20288;-84
2021/09/28 02:15:29;;;;;;;8.65;2.10;;;13.50;95.00;;;;;;4977368;28;20057;-86
2021/09/28 02:17:55;;;;;;;10.90;2.97;;;13.50;95.10;;;;;;4960384;28;20051;-84
2021/09/28 02:20:20;;;;;;;8.77;2.53;;;13.40;95.10;;;;;;4944831;28;20482;-84
2021/09/28 02:22:46;;;;;;;6.68;2.40;;;13.50;95.10;;;;;;4966389;28;20122;-85
2021/09/28 02:25:13;;;;;;;7.55;1.90;;;13.40;95.10;;;;;;4976685;28;20023;-86
2021/09/28 02:27:40;;;;;;;9.52;1.73;;;13.40;95.00;;;;;;4959916;28;20022;-85
2021/09/28 02:30:06;;;;;;;7.35;1.92;;;13.30;94.90;;;;;;4976064;28;20055;-84
2021/09/28 02:32:32;;;;;;;8.35;2.03;;;13.30;95.00;;;;;;4976588;28;20034;-85
2021/09/28 02:34:58;;;;;;;7.93;1.92;;;13.30;95.10;;;;;;4944416;28;20027;-84
2021/09/28 02:37:24;;;;;;;8.02;2.28;;;13.20;95.20;;;;;;4977787;28;20035;-84
2021/09/28 02:39:49;;;;;;;5.97;2.03;;;13.20;95.20;;;;;;4940679;29;20034;-84
2021/09/28 02:42:15;;;;;;;5.78;1.90;;;13.20;95.10;;;;;;4943718;28;20718;-85
2021/09/28 02:44:41;;;;;;;8.00;2.00;;;13.20;95.20;;;;;;4959596;28;20061;-85
2021/09/28 02:47:06;;;;;;;8.23;2.70;;;13.20;95.30;;;;;;4975444;28;20058;-84
2021/09/28 02:49:32;;;;;;;7.13;1.98;;;13.20;95.40;;;;;;4959850;28;20030;-84
2021/09/28 02:51:58;;;;;;;7.50;2.10;;;13.10;95.40;;;;;;4943800;28;20538;-84
2021/09/28 02:54:24;;;;;;;7.35;1.98;;;13.20;95.40;;;;;;4975090;28;20022;-84
2021/09/28 02:56:49;;;;;;;7.57;1.70;;;13.10;95.40;;;;;;4959326;28;20117;-84
2021/09/28 02:59:15;;;;;;;7.82;1.90;;;13.10;95.40;;;;;;4959336;28;20118;-84
2021/09/28 03:01:41;;;;;;;8.13;2.53;;;13.10;95.40;;;;;;4959214;28;20034;-84
2021/09/28 03:04:06;;;;;;;6.75;1.95;;;13.10;95.40;;;;;;4959221;28;20050;-86
2021/09/28 03:06:32;;;;;;;6.70;1.67;;;13.10;95.40;;;;;;4944174;28;20062;-85
2021/09/28 03:08:58;;;;;;;6.70;1.98;;;13.10;95.40;;;;;;4964047;28;20019;-85
2021/09/28 03:11:26;;;;;;;6.75;2.00;;;13.00;95.30;;;;;;4960003;28;20531;-85
2021/09/28 03:13:53;;;;;;;5.57;1.77;;;13.10;95.40;;;;;;4956922;28;20035;-85
2021/09/28 03:16:20;;;;;;;8.05;2.33;;;13.00;95.40;;;;;;4959381;28;20030;-85
2021/09/28 03:18:45;;;;;;;10.05;2.00;;;13.00;95.40;;;;;;4956823;28;20028;-86
2021/09/28 03:21:11;;;;;;;7.97;1.73;;;13.00;95.40;;;;;;4943820;28;20355;-85
2021/09/28 03:23:37;;;;;;;8.13;2.30;;;12.90;95.40;;;;;;4959673;28;20031;-85
2021/09/28 03:26:03;;;;;;;9.65;2.60;;;12.90;95.40;;;;;;4942242;28;20080;-85
2021/09/28 03:28:29;;;;;;;8.25;1.92;;;12.90;95.50;;;;;;4971582;28;20026;-85
2021/09/28 03:30:54;;;;;;;7.68;2.10;;;12.90;95.50;;;;;;4976500;28;20130;-85
2021/09/28 03:33:20;;;;;;;8.23;2.70;;;12.90;95.50;;;;;;4948660;28;20030;-86
2021/09/28 03:35:46;;;;;;;13.43;2.58;;;12.80;95.60;;;;;;4950846;28;20027;-84
2021/09/28 03:38:11;;;;;;;9.93;2.05;;;12.80;95.50;;;;;;4962149;28;20031;-85
2021/09/28 03:40:39;;;;;;;6.22;1.88;;;12.90;95.60;;;;;;4948590;28;20049;-84
2021/09/28 03:43:06;;;;;;;8.30;1.98;;;12.80;95.60;;;;;;4979180;28;20122;-84
2021/09/28 03:45:33;;;;;;;9.52;2.13;;;12.80;95.60;;;;;;4961443;28;20376;-84
2021/09/28 03:47:58;;;;;;;8.23;2.00;;;12.80;95.60;;;;;;4924343;29;20118;-83
2021/09/28 03:50:25;;;;;;;8.50;2.38;;;12.80;95.60;;;;;;4960354;28;20050;-84
2021/09/28 03:52:51;;;;;;;6.68;1.67;;;12.80;95.70;;;;;;4986112;28;20490;-84
2021/09/28 03:55:19;;;;;;;6.55;2.13;;;12.80;95.70;;;;;;4987041;28;20057;-84
2021/09/28 03:57:47;;;;;;;12.23;2.45;;;12.70;95.80;;;;;;4993396;28;20042;-84
2021/09/28 04:00:14;;;;;;;6.18;1.90;;;12.80;96.00;;;;;;4997648;28;20049;-90
2021/09/28 04:02:40;;;;;;;5.80;1.73;;;12.70;95.80;;;;;;4996840;28;20034;-85
2021/09/28 04:05:06;;;;;;;9.40;2.25;;;12.70;95.80;;;;;;4951137;28;20030;-84
2021/09/28 04:07:31;;;;;;;10.57;2.15;;;12.70;95.90;;;;;;4999002;28;20031;-85
2021/09/28 04:10:00;;;;;;;8.05;1.70;;;12.80;96.00;;;;;;4991827;28;20035;-93
2021/09/28 04:12:26;;;;;;;7.20;1.90;;;12.80;95.90;;;;;;4986656;28;20023;-87
2021/09/28 04:14:53;;;;;;;5.55;1.45;;;12.80;95.80;;;;;;5002150;28;20418;-85
2021/09/28 04:17:19;;;;;;;9.88;1.83;;;12.70;95.70;;;;;;4976449;28;20031;-84
2021/09/28 04:19:45;;;;;;;10.48;1.83;;;12.70;95.70;;;;;;4965599;28;20034;-84
2021/09/28 04:22:10;;;;;;;5.90;1.60;;;12.70;95.80;;;;;;4961839;28;20042;-84
2021/09/28 04:24:36;;;;;;;6.70;1.92;;;12.70;95.70;;;;;;4976269;28;20490;-84
2021/09/28 04:27:02;;;;;;;12.98;3.17;;;12.60;95.80;;;;;;4977464;28;20088;-85
2021/09/28 04:29:28;;;;;;;6.93;1.90;;;12.60;95.80;;;;;;4977881;28;20049;-85
2021/09/28 04:31:53;;;;;;;8.27;1.90;;;12.60;96.10;;;;;;4977318;28;20031;-85
2021/09/28 04:34:19;;;;;;;6.57;1.70;;;12.60;96.30;;;;;;4965587;28;20109;-85
2021/09/28 04:36:45;;;;;;;6.55;1.67;;;12.60;96.30;;;;;;4960481;28;20031;-85
2021/09/28 04:39:12;;;;;;;5.93;1.60;;;12.60;96.20;;;;;;4969797;28;20426;-84
2021/09/28 04:41:38;;;;;;;8.93;2.30;;;12.60;96.40;;;;;;4952668;28;20027;-85
2021/09/28 04:44:04;;;;;;;5.13;1.60;;;12.60;96.60;;;;;;4944838;28;20438;-86
2021/09/28 04:46:30;;;;;;;5.55;1.80;;;12.60;96.50;;;;;;4966344;28;20034;-85
2021/09/28 04:48:55;;;;;;;8.75;2.15;;;12.50;96.50;;;;;;4974374;28;20023;-85
2021/09/28 04:51:21;;;;;;;6.50;1.80;;;12.50;96.70;;;;;;4958585;28;20403;-86
2021/09/28 04:53:47;;;;;;;7.80;2.42;;;12.50;96.60;;;;;;4987582;28;20027;-86
2021/09/28 04:56:13;;;;;;;7.18;1.52;;;12.50;96.40;;;;;;4958279;28;20277;-86
2021/09/28 04:58:39;;;;;;;8.15;1.90;;;12.50;96.30;;;;;;4958385;28;20501;-85
2021/09/28 05:01:04;;;;;;;7.30;1.80;;;12.50;96.30;;;;;;4943523;28;20034;-85
2021/09/28 05:03:30;;;;;;;7.72;2.00;;;12.50;96.30;;;;;;4972995;28;20419;-86
2021/09/28 05:05:56;;;;;;;10.98;2.08;;;12.50;96.40;;;;;;4957294;28;20106;-85
2021/09/28 05:08:22;;;;;;;7.07;2.03;;;12.50;96.20;;;;;;4982914;28;20051;-85
2021/09/28 05:10:48;;;;;;;9.35;2.53;;;12.50;96.20;;;;;;4945346;28;20047;-85
2021/09/28 05:13:14;;;;;;;7.90;1.80;;;12.50;96.20;;;;;;4973421;28;20542;-85
2021/09/28 05:15:39;;;;;;;9.75;2.33;;;12.50;96.20;;;;;;4958196;28;20031;-85
2021/09/28 05:18:05;;;;;;;11.73;1.90;;;12.50;96.20;;;;;;4932716;28;20038;-85
2021/09/28 05:20:32;;;;;;;7.22;1.90;;;12.50;96.10;;;;;;4961660;28;20031;-85
2021/09/28 05:22:59;;;;;;;8.15;1.60;;;12.40;96.10;;;;;;4977230;28;20035;-88
2021/09/28 05:25:27;;;;;;;6.70;2.08;;;12.40;96.10;;;;;;4961391;28;20058;-86
2021/09/28 05:27:52;;;;;;;8.20;1.92;;;12.40;96.10;;;;;;4961634;28;20049;-86
2021/09/28 05:30:18;;;;;;;6.07;1.80;;;12.40;96.10;;;;;;4979004;28;20038;-86
2021/09/28 05:32:44;;;;;;;6.20;1.60;;;12.40;96.10;;;;;;4977498;28;20494;-86
2021/09/28 05:35:10;;;;;;;6.45;2.00;;;12.40;96.10;;;;;;4976706;28;20388;-85
2021/09/28 05:37:36;;;;;;;5.95;1.80;;;12.40;96.10;;;;;;4945055;28;20030;-86
2021/09/28 05:40:03;;;;;;;7.22;2.17;;;12.30;96.10;;;;;;4977772;28;20035;-87
2021/09/28 05:42:29;;;;;;;5.97;1.80;;;12.30;96.10;;;;;;4977305;28;20125;-86
2021/09/28 05:44:55;;;;;;;6.88;1.73;;;12.30;96.10;;;;;;4944479;28;20480;-86
2021/09/28 05:47:20;;;;;;;9.77;1.83;;;12.30;96.10;;;;;;4960688;28;20023;-85
2021/09/28 05:49:46;;;;;;;6.03;1.73;;;12.30;96.00;;;;;;4953036;28;20038;-86
2021/09/28 05:52:13;;;;;;;5.00;2.08;;;12.30;96.00;;;;;;4944448;28;20023;-86
2021/09/28 05:54:47;;;;;;;8.25;1.98;;;12.20;95.90;;;;;;4961424;28;20535;-86
2021/09/28 05:57:23;;;;;;;8.15;2.03;;;12.20;96.00;;;;;;4973119;28;20031;-86
2021/09/28 05:59:49;;;;;;;5.05;1.63;;;12.20;96.00;;;;;;4976865;28;20033;-86
2021/09/28 06:02:17;;;;;;;5.95;1.70;;;12.20;96.00;;;;;;4976414;28;20097;-84
2021/09/28 06:04:43;;;;;;;9.15;2.58;;;12.20;96.10;;;;;;4975929;28;20031;-85
2021/09/28 06:07:09;;;;;;;5.57;1.80;;;12.20;96.20;;;;;;4945200;28;20100;-85
2021/09/28 06:09:38;;;;;;;6.60;1.60;;;12.20;96.10;;;;;;4948667;28;20143;-87
2021/09/28 06:12:05;;;;;;;5.78;2.05;;;12.20;96.50;;;;;;4982415;28;20077;-85
2021/09/28 06:14:32;;;;;;;7.50;2.20;;;12.20;96.30;;;;;;4960437;28;20486;-87
2021/09/28 06:16:58;;;;;;;9.50;2.30;;;12.20;96.30;;;;;;4973665;28;20149;-86
2021/09/28 06:19:25;;;;;;;6.38;1.90;;;12.20;96.30;;;;;;4956302;28;20031;-85
2021/09/28 06:21:51;;;;;;;5.53;1.80;;;12.20;96.30;;;;;;4971386;28;20031;-86
2021/09/28 06:24:17;;;;;;;7.15;1.60;;;12.20;96.40;;;;;;4959051;28;20505;-85
2021/09/28 06:26:44;;;;;;;6.45;2.03;;;12.20;96.40;;;;;;4972351;28;20070;-86
2021/09/28 06:29:10;;;;;;;8.68;2.13;;;12.20;96.50;;;;;;4973491;28;20030;-85
2021/09/28 06:31:36;;;;;;;6.30;1.70;;;12.20;96.40;;;;;;4959681;28;20034;-87
2021/09/28 06:34:02;;;;;;;5.50;1.90;;;12.20;96.50;;;;;;4963857;28;20077;-86
2021/09/28 06:36:27;;;;;;;6.43;1.83;;;12.20;96.40;;;;;;4962681;28;20031;-86
2021/09/28 06:38:53;;;;;;;6.75;2.22;;;12.20;96.50;;;;;;4976096;28;20026;-86
2021/09/28 06:41:19;;;;;;;8.05;2.40;;;12.20;96.50;;;;;;4970189;28;20082;-86
2021/09/28 06:43:46;;;;;;;6.85;1.95;;;12.30;96.50;;;;;;4947135;28;20034;-86
2021/09/28 06:46:11;;;;;;;7.25;1.90;;;12.30;96.50;;;;;;4976238;28;20023;-85
2021/09/28 06:48:37;;;;;;;8.90;2.00;;;12.30;96.50;;;;;;4960482;28;20030;-85
2021/09/28 06:51:03;;;;;;;8.85;2.50;;;12.30;96.60;;;;;;4928002;28;20494;-86
2021/09/28 06:53:28;;;;;;;9.15;2.13;;;12.30;96.60;;;;;;4952954;28;20080;-87
2021/09/28 06:55:54;;;;;;;8.93;2.30;;;12.40;96.70;;;;;;4946893;28;20161;-87
2021/09/28 06:58:20;;;;;;;5.70;1.98;;;12.40;96.60;;;;;;4960255;28;20035;-86
2021/09/28 07:00:46;;;;;;;7.38;2.00;;;12.40;96.60;;;;;;4960275;28;20030;-87
2021/09/28 07:03:12;;;;;;;7.63;1.88;;;12.50;96.70;;;;;;4950032;28;20065;-87
2021/09/28 07:05:41;;;;;;;5.15;1.75;;;12.50;96.70;;;;;;4963837;28;20027;-86
2021/09/28 07:08:06;;;;;;;6.00;1.75;;;12.50;96.70;;;;;;4987509;28;20494;-87
2021/09/28 07:10:32;;;;;;;7.88;2.47;;;12.60;96.70;;;;;;4934875;28;20039;-87
2021/09/28 07:12:58;;;;;;;7.38;2.10;;;12.60;96.70;;;;;;4959499;28;20031;-92
2021/09/28 07:15:23;;;;;;;5.70;1.90;;;12.60;96.70;;;;;;4959750;28;20031;-90
2021/09/28 07:17:49;;;;;;;6.55;2.42;;;12.70;96.70;;;;;;4956137;28;20030;-90
2021/09/28 07:20:15;;;;;;;9.75;3.10;;;12.70;96.70;;;;;;4960066;28;20031;-91
2021/09/28 07:22:41;;;;;;;10.88;2.65;;;12.70;96.70;;;;;;4945338;28;20464;-91
2021/09/28 07:25:08;;;;;;;9.77;2.40;;;12.80;96.80;;;;;;4964751;28;20485;-91
2021/09/28 07:27:34;;;;;;;7.68;2.60;;;12.80;96.80;;;;;;4967847;28;20054;-92
2021/09/28 07:30:00;;;;;;;8.13;2.60;;;12.90;97.00;;;;;;4960235;28;20058;-91
2021/09/28 07:32:26;;;;;;;7.53;2.75;;;12.90;96.80;;;;;;4960738;28;20026;-90
2021/09/28 07:34:52;;;;;;;14.80;2.58;;;12.90;96.90;;;;;;4970931;28;20069;-93
2021/09/28 07:37:18;;;;;;;9.32;2.53;;;13.00;97.00;;;;;;4949622;28;20018;-93
2021/09/28 07:39:44;;;;;;;9.60;3.33;;;13.00;96.90;;;;;;4953619;28;20024;-91
2021/09/28 07:42:11;;;;;;;10.13;2.90;;;13.00;96.90;;;;;;4996445;28;20038;-92
2021/09/28 07:44:37;;;;;;;14.40;3.17;;;13.10;96.90;;;;;;4998146;28;20019;-94
2021/09/28 07:47:03;;;;;;;12.65;2.92;;;13.10;96.80;;;;;;4981822;28;20015;-94
2021/09/28 07:49:28;;;;;;;14.75;3.35;;;13.10;96.80;;;;;;4981870;28;20011;-95
2021/09/28 07:51:54;;;;;;;8.75;2.50;;;13.10;96.80;;;;;;5010675;28;20034;-92
2021/09/28 07:54:20;;;;;;;10.30;2.60;;;13.20;96.80;;;;;;4971359;28;20117;-90
2021/09/28 07:56:45;;;;;;;8.40;2.58;;;13.20;96.80;;;;;;4950007;28;20084;-90
2021/09/28 07:59:11;;;;;;;10.73;3.20;;;13.30;96.80;;;;;;4940421;28;20154;-88
2021/09/28 08:01:37;;;;;;;11.75;3.30;;;13.30;96.60;;;;;;4959346;28;20130;-91
2021/09/28 08:04:04;;;;;;;9.80;2.75;;;13.30;96.70;;;;;;4957226;28;20472;-92
2021/09/28 08:06:30;;;;;;;8.77;3.20;;;13.40;96.60;;;;;;4942857;28;20458;-90
2021/09/28 08:08:56;;;;;;;9.10;3.03;;;13.40;96.60;;;;;;4971771;28;20056;-92
2021/09/28 08:11:22;;;;;;;11.68;2.70;;;13.40;96.50;;;;;;4979711;28;20038;-91
2021/09/28 08:13:48;;;;;;;8.20;2.50;;;13.50;96.50;;;;;;4991346;28;20027;-91
2021/09/28 08:16:14;;;;;;;10.35;3.20;;;13.60;96.60;;;;;;4978267;28;20026;-91
2021/09/28 08:18:40;;;;;;;4.93;2.30;;;13.60;96.50;;;;;;4970175;28;20414;-94
2021/09/28 08:21:06;;;;;;;8.07;3.10;;;13.70;96.60;;;;;;4964118;28;20095;-91
2021/09/28 08:23:31;;;;;;;12.32;2.72;;;13.70;96.40;;;;;;4978258;28;20030;-91
2021/09/28 08:29:08;;;;;;;9.25;3.08;;;13.80;96.50;;;;;;4964116;28;20042;-93
2021/09/28 08:31:27;;;;;;;10.40;3.08;;;13.90;96.40;;;;;;4981370;28;20109;-91
2021/09/28 08:33:53;;;;;;;8.50;2.78;;;13.90;96.20;;;;;;4968814;28;20045;-91
2021/09/28 08:36:19;;;;;;;11.98;3.15;;;14.10;96.30;;;;;;4965497;28;20037;-91
2021/09/28 08:38:45;;;;;;;9.40;2.65;;;14.10;96.30;;;;;;4961029;28;20019;-93
2021/09/28 08:41:14;;;;;;;9.63;2.50;;;14.20;96.30;;;;;;4966784;28;20035;-93
2021/09/28 08:43:40;;;;;;;8.70;2.85;;;14.20;96.30;;;;;;4967000;28;20031;-93
2021/09/28 08:46:06;;;;;;;9.27;2.97;;;14.30;96.30;;;;;;4979909;28;20030;-95
2021/09/28 08:48:31;;;;;;;10.40;2.47;;;14.40;96.20;;;;;;4979446;28;20105;-92
2021/09/28 08:51:00;;;;;;;9.13;2.38;;;14.50;96.20;;;;;;4979538;28;20030;-92
2021/09/28 08:53:26;;;;;;;11.00;3.55;;;14.60;95.90;;;;;;4983038;28;20030;-93
2021/09/28 08:55:51;;;;;;;10.82;2.80;;;14.60;95.80;;;;;;4984327;28;20018;-94
2021/09/28 08:58:18;;;;;;;9.32;2.30;;;14.70;95.80;;;;;;4981482;28;20047;-94
2021/09/28 09:00:45;;;;;;;8.40;2.85;;;14.80;95.80;;;;;;4997344;28;20029;-93
2021/09/28 09:03:26;;;;;;;9.98;2.33;;;14.90;95.90;;;;;;4988141;28;20045;-86
2021/09/28 09:05:52;;;;;;;10.98;3.13;;;14.90;95.90;;;;;;4999110;28;20022;-87
2021/09/28 09:08:24;;;;;;;10.63;2.90;;;15.00;95.50;;;;;;4998018;28;20106;-82
2021/09/28 09:11:01;;;;;;;10.30;2.50;;;15.10;95.30;;;;;;4995572;28;20481;-83
2021/09/28 09:13:49;;;;;;;12.30;2.70;;;15.20;95.30;;;;;;4996401;28;20089;-83
2021/09/28 09:16:16;;;;;;;10.05;2.80;;;15.30;95.10;;;;;;4996552;28;20382;-83
2021/09/28 09:18:45;;;;;;;12.20;3.65;;;15.40;94.80;;;;;;4960848;28;20129;-86
2021/09/28 09:21:11;;;;;;;12.65;2.80;;;15.40;94.40;;;;;;4996581;28;20124;-87
2021/09/28 09:23:38;;;;;;;8.73;2.65;;;15.60;94.50;;;;;;4964928;28;20042;-85
2021/09/28 09:26:21;;;;;;;9.65;3.22;;;15.70;94.40;;;;;;4980917;28;20121;-84
2021/09/28 09:28:50;;;;;;;7.68;2.58;;;15.70;93.90;;;;;;4998916;28;20023;-85
2021/09/28 09:31:34;;;;;;;12.25;3.33;;;15.80;94.00;;;;;;4998407;28;20029;-84
2021/09/28 09:34:15;;;;;;;12.43;2.90;;;15.90;93.50;;;;;;4994665;28;20019;-90
2021/09/28 09:36:42;;;;;;;10.63;2.83;;;16.00;93.70;;;;;;4990601;28;20038;-90
2021/09/28 09:39:09;;;;;;;7.35;2.50;;;16.10;93.60;;;;;;5003384;28;20095;-90
2021/09/28 09:41:39;;;;;;;11.60;2.78;;;16.20;93.60;;;;;;5002809;28;20050;-93
2021/09/28 09:44:06;;;;;;;8.02;2.42;;;16.30;93.40;;;;;;5003619;28;20102;-93
2021/09/28 09:46:47;;;;;;;9.30;2.50;;;16.40;93.50;;;;;;5019082;28;20031;-96
2021/09/28 09:49:21;;;;;;;10.00;2.70;;;16.50;93.50;;;;;;4988171;28;20026;-94
2021/09/28 09:51:53;;;;;;;8.52;2.47;;;16.60;93.10;;;;;;5010518;28;20030;-94
2021/09/28 09:54:33;;;;;;;9.00;2.92;;;16.70;92.80;;;;;;5017136;28;20007;-95
2021/09/28 09:57:04;;;;;;;7.75;2.42;;;16.80;92.60;;;;;;5002711;28;20017;-93
2021/09/28 09:59:31;;;;;;;14.40;2.40;;;16.90;92.20;;;;;;5001638;28;20086;-93
2021/09/28 10:01:57;;;;;;;10.18;2.47;;;17.00;91.80;;;;;;5014277;28;20096;-95
2021/09/28 10:04:23;;;;;;;6.97;2.22;;;17.10;91.80;;;;;;4994358;28;20027;-96
2021/09/28 10:06:51;;;;;;;11.00;2.78;;;17.20;91.80;;;;;;5000489;28;20030;-94
2021/09/28 10:09:45;;;;;;;9.25;2.55;;;17.30;91.80;;;;;;5013453;28;20061;-95
2021/09/28 10:12:12;;;;;;;9.88;2.92;;;17.40;91.60;;;;;;5006449;28;20023;-94
2021/09/28 10:14:41;;;;;;;10.32;2.75;;;17.50;91.80;;;;;;4979841;28;20011;-94
2021/09/28 10:22:39;;;;;;;9.05;2.63;;;17.80;90.50;;;;;;4994119;28;20058;-88
2021/09/28 10:25:20;;;;;;;11.25;2.35;;;17.90;90.30;;;;;;4966336;28;20034;-88
2021/09/28 10:27:59;;;;;;;9.70;2.50;;;18.00;90.20;;;;;;4994505;28;20030;-88
2021/09/28 10:30:31;;;;;;;12.02;2.63;;;18.00;88.40;;;;;;4985351;28;20038;-88
2021/09/28 10:32:59;;;;;;;9.93;2.60;;;18.10;89.10;;;;;;4990496;28;20395;-88
2021/09/28 10:35:26;;;;;;;12.25;2.60;;;18.20;89.20;;;;;;4978165;28;20026;-89
2021/09/28 10:38:06;;;;;;;10.80;2.63;;;18.30;89.10;;;;;;4976841;28;20069;-88
2021/09/28 10:40:32;;;;;;;10.38;2.70;;;18.30;88.50;;;;;;4978377;28;20049;-90
2021/09/28 10:43:04;;;;;;;9.77;2.33;;;18.40;89.10;;;;;;4982008;28;20026;-91
2021/09/28 10:45:30;;;;;;;10.38;2.47;;;18.50;87.90;;;;;;4968989;28;20030;-91
2021/09/28 10:48:09;;;;;;;8.88;2.55;;;18.60;88.00;;;;;;4984679;28;20483;-91
2021/09/28 10:50:39;;;;;;;6.75;2.22;;;18.70;87.90;;;;;;4980521;28;20040;-91
2021/09/28 10:53:27;;;;;;;11.63;2.42;;;18.80;87.00;;;;;;4969181;28;20031;-89
2021/09/28 10:55:57;;;;;;;8.07;2.05;;;18.90;87.70;;;;;;4990585;28;20030;-90
2021/09/28 10:58:24;;;;;;;7.55;2.22;;;19.00;86.70;;;;;;4979389;28;20033;-89
2021/09/28 11:00:52;;;;;;;8.77;2.20;;;19.10;85.40;;;;;;4964889;28;20069;-90
2021/09/28 11:03:38;;;;;;;8.18;2.08;;;19.10;84.90;;;;;;4979493;28;20022;-90
2021/09/28 11:06:05;;;;;;;11.50;2.05;;;19.20;85.90;;;;;;4995830;28;20038;-90
2021/09/28 11:08:35;;;;;;;7.75;1.98;;;19.30;83.00;;;;;;4944571;28;20023;-89
2021/09/28 11:11:02;;;;;;;8.45;1.80;;;19.40;83.30;;;;;;4972514;28;20498;-90
2021/09/28 11:13:37;;;;;;;10.00;2.28;;;19.40;82.30;;;;;;4979756;28;20053;-90
2021/09/28 11:16:06;;;;;;;11.77;2.70;;;19.40;81.60;;;;;;4979013;28;20027;-90
2021/09/28 11:18:32;;;;;;;8.70;2.53;;;19.50;80.60;;;;;;4980414;28;20046;-90
2021/09/28 11:21:12;;;;;;;7.53;1.88;;;19.50;81.30;;;;;;4961962;28;20565;-88
2021/09/28 11:23:40;;;;;;;9.40;2.13;;;19.60;81.00;;;;;;4978039;28;20026;-89
2021/09/28 11:26:06;;;;;;;9.68;2.15;;;19.70;80.60;;;;;;4984682;28;20034;-88
2021/09/28 11:28:32;;;;;;;9.35;2.13;;;19.80;80.20;;;;;;4995531;28;20022;-88
2021/09/28 11:31:05;;;;;;;7.25;2.28;;;19.90;80.40;;;;;;4978242;28;20043;-88
2021/09/28 11:33:40;;;;;;;8.52;2.38;;;20.00;79.50;;;;;;4994526;28;20022;-88
2021/09/28 11:36:11;;;;;;;9.60;2.10;;;20.00;77.90;;;;;;4987732;28;20462;-87
2021/09/28 11:38:38;;;;;;;;;;;20.00;77.70;;;;;;4993552;28;20564;-89
2021/09/28 11:41:10;;;;;;;9.30;1.88;;;20.10;77.90;;;;;;4994157;28;19980;-87
2021/09/28 11:43:56;;;;;;;6.88;1.83;;;20.20;78.70;;;;;;4994174;28;20084;-88
2021/09/28 11:46:25;;;;;;;9.05;2.67;;;20.20;78.50;;;;;;4976572;28;20022;-87
2021/09/28 11:49:17;;;;;;;6.53;1.73;;;20.30;76.20;;;;;;4976946;28;20045;-86
2021/09/28 11:51:45;;;;;;;9.23;1.83;;;20.50;76.50;;;;;;4994063;28;20053;-88
2021/09/28 11:54:15;;;;;;;6.30;1.48;;;20.50;75.50;;;;;;4992330;28;20030;-87
2021/09/28 11:56:48;;;;;;;7.53;2.07;;;20.50;75.40;;;;;;4984452;28;20105;-88
2021/09/28 11:59:20;;;;;;;9.45;2.13;;;20.50;77.20;;;;;;4977150;28;20280;-88
2021/09/28 12:01:47;;;;;;;8.13;1.63;;;20.60;76.70;;;;;;4977988;28;20084;-88
2021/09/28 12:09:29;;;;;;;6.25;1.80;;;20.80;76.00;;;;;;5038083;28;20450;-88
2021/09/28 12:12:04;;;;;;;7.20;2.25;;;20.90;75.40;;;;;;5020990;28;20124;-89
2021/09/28 12:14:31;;;;;;;9.48;2.15;;;20.90;74.10;;;;;;5024201;28;20020;-90
2021/09/28 12:17:07;;;;;;;5.43;1.58;;;21.00;71.60;;;;;;5033022;28;20044;-85
2021/09/28 12:19:34;;;;;;;8.77;1.73;;;21.00;73.60;;;;;;5034553;28;20043;-85
2021/09/28 12:22:01;;;;;;;7.20;2.05;;;21.10;73.00;;;;;;5032831;28;20030;-85
2021/09/28 12:24:29;;;;;;;6.57;1.67;;;21.10;71.50;;;;;;5033971;28;20028;-85
2021/09/28 12:27:07;;;;;;;8.27;1.90;;;21.20;72.30;;;;;;5031674;28;20030;-85
2021/09/28 12:29:44;;;;;;;5.20;1.38;;;21.20;73.50;;;;;;5015647;28;20017;-84
2021/09/28 12:32:22;;;;;;;7.32;1.80;;;21.30;74.30;;;;;;5032043;28;20029;-85
2021/09/28 12:35:03;;;;;;;7.30;1.63;;;21.30;73.10;;;;;;5028269;28;20033;-86
2021/09/28 12:37:30;;;;;;;9.23;2.20;;;21.50;70.30;;;;;;5033844;28;20025;-85
2021/09/28 12:40:04;;;;;;;4.97;1.73;;;21.50;68.30;;;;;;5034071;28;20116;-85
2021/09/28 12:42:30;;;;;;;8.95;1.88;;;21.40;68.60;;;;;;5017910;28;20017;-85
2021/09/28 12:45:04;;;;;;;7.50;1.85;;;21.40;70.20;;;;;;5027220;28;20009;-85
2021/09/28 12:47:39;;;;;;;6.88;1.95;;;21.40;69.20;;;;;;5034295;28;20021;-86
2021/09/28 12:50:26;;;;;;;6.30;1.55;;;21.50;69.70;;;;;;5034198;28;20478;-85
2021/09/28 12:52:59;;;;;;;7.05;1.60;;;21.50;71.20;;;;;;5048393;28;20024;-85
2021/09/28 12:55:26;;;;;;;4.32;1.30;;;21.50;70.90;;;;;;5033065;28;20370;-85
2021/09/28 12:57:53;;;;;;;4.00;1.40;;;21.50;70.40;;;;;;5033819;28;20485;-86
2021/09/28 13:00:19;;;;;;;7.75;1.77;;;21.60;69.60;;;;;;5033876;28;20026;-85
2021/09/28 13:02:46;;;;;;;7.13;1.70;;;21.60;67.80;;;;;;5033858;28;20106;-85